sensor_id;sensor_type;location;lat;lon;timestamp;P1;durP1;ratioP1;P2;durP2;ratioP2
54575;SDS011;40472;53.486;14.542;2022-08-01T00:00:35;2.25;;;1.10;;
54575;SDS011;40472;53.486;14.542;2022-08-01T00:03:02;1.75;;;0.95;;
54575;SDS011;40472;53.486;14.542;2022-08-01T00:05:28;2.28;;;1.20;;
54575;SDS011;40472;53.486;14.542;2022-08-01T00:07:54;2.95;;;0.95;;
54575;SDS011;40472;53.486;14.542;2022-08-01T00:10:19;3.00;;;1.08;;
54575;SDS011;40472;53.486;14.542;2022-08-01T00:12:45;3.90;;;0.95;;
54575;SDS011;40472;53.486;14.542;2022-08-01T00:15:12;3.20;;;1.02;;
54575;SDS011;40472;53.486;14.542;2022-08-01T00:17:40;5.53;;;1.17;;
54575;SDS011;40472;53.486;14.542;2022-08-01T00:20:07;5.25;;;1.00;;
54575;SDS011;40472;53.486;14.542;2022-08-01T00:22:35;1.67;;;1.13;;
54575;SDS011;40472;53.486;14.542;2022-08-01T00:25:02;4.90;;;1.67;;
54575;SDS011;40472;53.486;14.542;2022-08-01T00:27:29;5.80;;;1.30;;
54575;SDS011;40472;53.486;14.542;2022-08-01T00:29:55;1.60;;;1.20;;
54575;SDS011;40472;53.486;14.542;2022-08-01T00:32:20;6.85;;;1.08;;
54575;SDS011;40472;53.486;14.542;2022-08-01T00:34:46;2.55;;;0.90;;
54575;SDS011;40472;53.486;14.542;2022-08-01T00:37:12;3.47;;;1.00;;
54575;SDS011;40472;53.486;14.542;2022-08-01T00:39:38;2.28;;;1.15;;
54575;SDS011;40472;53.486;14.542;2022-08-01T00:42:08;3.40;;;1.00;;
54575;SDS011;40472;53.486;14.542;2022-08-01T00:44:35;2.85;;;1.20;;
54575;SDS011;40472;53.486;14.542;2022-08-01T00:47:02;5.50;;;1.23;;
54575;SDS011;40472;53.486;14.542;2022-08-01T00:49:28;1.40;;;1.00;;
54575;SDS011;40472;53.486;14.542;2022-08-01T00:51:54;1.92;;;1.05;;
54575;SDS011;40472;53.486;14.542;2022-08-01T00:54:20;5.32;;;1.55;;
54575;SDS011;40472;53.486;14.542;2022-08-01T00:56:47;1.42;;;1.00;;
54575;SDS011;40472;53.486;14.542;2022-08-01T00:59:13;4.60;;;1.17;;
54575;SDS011;40472;53.486;14.542;2022-08-01T01:01:41;4.30;;;1.20;;
54575;SDS011;40472;53.486;14.542;2022-08-01T01:04:08;5.40;;;1.30;;
54575;SDS011;40472;53.486;14.542;2022-08-01T01:06:36;4.80;;;1.20;;
54575;SDS011;40472;53.486;14.542;2022-08-01T01:09:15;2.40;;;1.17;;
54575;SDS011;40472;53.486;14.542;2022-08-01T01:14:35;7.95;;;1.23;;
54575;SDS011;40472;53.486;14.542;2022-08-01T01:17:16;6.43;;;1.20;;
54575;SDS011;40472;53.486;14.542;2022-08-01T01:19:45;1.88;;;1.20;;
54575;SDS011;40472;53.486;14.542;2022-08-01T01:22:24;3.72;;;1.10;;
54575;SDS011;40472;53.486;14.542;2022-08-01T01:28:10;2.80;;;1.23;;
54575;SDS011;40472;53.486;14.542;2022-08-01T01:30:38;4.18;;;1.80;;
54575;SDS011;40472;53.486;14.542;2022-08-01T01:33:06;4.05;;;1.50;;
54575;SDS011;40472;53.486;14.542;2022-08-01T01:35:36;4.13;;;1.50;;
54575;SDS011;40472;53.486;14.542;2022-08-01T01:38:26;4.13;;;1.40;;
54575;SDS011;40472;53.486;14.542;2022-08-01T01:40:54;3.92;;;1.20;;
54575;SDS011;40472;53.486;14.542;2022-08-01T01:43:22;4.82;;;1.40;;
54575;SDS011;40472;53.486;14.542;2022-08-01T01:45:49;2.17;;;1.20;;
54575;SDS011;40472;53.486;14.542;2022-08-01T01:48:17;4.70;;;1.30;;
54575;SDS011;40472;53.486;14.542;2022-08-01T01:50:46;1.67;;;1.10;;
54575;SDS011;40472;53.486;14.542;2022-08-01T01:53:13;5.25;;;1.58;;
54575;SDS011;40472;53.486;14.542;2022-08-01T01:55:43;6.93;;;1.77;;
54575;SDS011;40472;53.486;14.542;2022-08-01T01:58:13;7.18;;;1.55;;
54575;SDS011;40472;53.486;14.542;2022-08-01T02:00:39;6.97;;;1.50;;
54575;SDS011;40472;53.486;14.542;2022-08-01T02:03:07;4.47;;;1.58;;
54575;SDS011;40472;53.486;14.542;2022-08-01T02:05:35;3.05;;;1.30;;
54575;SDS011;40472;53.486;14.542;2022-08-01T02:08:03;3.78;;;1.40;;
54575;SDS011;40472;53.486;14.542;2022-08-01T02:10:31;2.00;;;1.20;;
54575;SDS011;40472;53.486;14.542;2022-08-01T02:12:59;4.78;;;1.80;;
54575;SDS011;40472;53.486;14.542;2022-08-01T02:15:29;5.75;;;1.40;;
54575;SDS011;40472;53.486;14.542;2022-08-01T02:17:58;5.93;;;1.67;;
54575;SDS011;40472;53.486;14.542;2022-08-01T02:20:29;7.15;;;1.40;;
54575;SDS011;40472;53.486;14.542;2022-08-01T02:22:58;5.20;;;1.60;;
54575;SDS011;40472;53.486;14.542;2022-08-01T02:25:31;4.38;;;1.42;;
54575;SDS011;40472;53.486;14.542;2022-08-01T02:28:10;4.07;;;1.42;;
54575;SDS011;40472;53.486;14.542;2022-08-01T02:30:44;3.05;;;1.40;;
54575;SDS011;40472;53.486;14.542;2022-08-01T02:33:56;4.53;;;1.38;;
54575;SDS011;40472;53.486;14.542;2022-08-01T02:36:03;9.68;;;1.48;;
54575;SDS011;40472;53.486;14.542;2022-08-01T02:38:31;5.93;;;1.10;;
54575;SDS011;40472;53.486;14.542;2022-08-01T02:41:02;2.13;;;1.30;;
54575;SDS011;40472;53.486;14.542;2022-08-01T02:43:33;3.42;;;1.35;;
54575;SDS011;40472;53.486;14.542;2022-08-01T02:46:03;3.67;;;1.17;;
54575;SDS011;40472;53.486;14.542;2022-08-01T02:48:31;2.70;;;1.13;;
54575;SDS011;40472;53.486;14.542;2022-08-01T02:51:01;3.22;;;1.50;;
54575;SDS011;40472;53.486;14.542;2022-08-01T02:53:32;11.93;;;1.50;;
54575;SDS011;40472;53.486;14.542;2022-08-01T02:56:03;5.88;;;1.13;;
54575;SDS011;40472;53.486;14.542;2022-08-01T02:58:30;5.70;;;1.45;;
54575;SDS011;40472;53.486;14.542;2022-08-01T03:00:58;1.27;;;1.00;;
54575;SDS011;40472;53.486;14.542;2022-08-01T03:03:24;4.05;;;1.20;;
54575;SDS011;40472;53.486;14.542;2022-08-01T03:05:50;3.08;;;1.60;;
54575;SDS011;40472;53.486;14.542;2022-08-01T03:08:17;2.55;;;1.15;;
54575;SDS011;40472;53.486;14.542;2022-08-01T03:10:45;1.55;;;0.98;;
54575;SDS011;40472;53.486;14.542;2022-08-01T03:13:13;3.17;;;1.52;;
54575;SDS011;40472;53.486;14.542;2022-08-01T03:15:40;3.05;;;1.08;;
54575;SDS011;40472;53.486;14.542;2022-08-01T03:18:08;3.25;;;1.52;;
54575;SDS011;40472;53.486;14.542;2022-08-01T03:20:36;2.97;;;1.20;;
54575;SDS011;40472;53.486;14.542;2022-08-01T03:23:03;5.97;;;1.48;;
54575;SDS011;40472;53.486;14.542;2022-08-01T03:25:32;4.45;;;1.30;;
54575;SDS011;40472;53.486;14.542;2022-08-01T03:28:02;3.25;;;1.30;;
54575;SDS011;40472;53.486;14.542;2022-08-01T03:30:31;3.63;;;1.50;;
54575;SDS011;40472;53.486;14.542;2022-08-01T03:32:58;3.85;;;1.13;;
54575;SDS011;40472;53.486;14.542;2022-08-01T03:35:29;1.80;;;0.90;;
54575;SDS011;40472;53.486;14.542;2022-08-01T03:37:58;2.63;;;1.30;;
54575;SDS011;40472;53.486;14.542;2022-08-01T03:40:40;2.85;;;1.40;;
54575;SDS011;40472;53.486;14.542;2022-08-01T03:43:14;4.38;;;1.25;;
54575;SDS011;40472;53.486;14.542;2022-08-01T03:45:48;2.72;;;2.00;;
54575;SDS011;40472;53.486;14.542;2022-08-01T03:48:16;5.00;;;1.45;;
54575;SDS011;40472;53.486;14.542;2022-08-01T03:50:45;2.33;;;1.33;;
54575;SDS011;40472;53.486;14.542;2022-08-01T03:53:14;2.42;;;1.40;;
54575;SDS011;40472;53.486;14.542;2022-08-01T03:55:46;9.27;;;1.50;;
54575;SDS011;40472;53.486;14.542;2022-08-01T03:58:12;4.72;;;1.10;;
54575;SDS011;40472;53.486;14.542;2022-08-01T04:00:39;1.70;;;1.17;;
54575;SDS011;40472;53.486;14.542;2022-08-01T04:03:09;4.47;;;1.65;;
54575;SDS011;40472;53.486;14.542;2022-08-01T04:05:37;4.85;;;1.50;;
54575;SDS011;40472;53.486;14.542;2022-08-01T04:08:05;5.70;;;1.10;;
54575;SDS011;40472;53.486;14.542;2022-08-01T04:10:31;3.88;;;1.20;;
54575;SDS011;40472;53.486;14.542;2022-08-01T04:12:56;4.00;;;1.10;;
54575;SDS011;40472;53.486;14.542;2022-08-01T04:15:22;1.83;;;1.35;;
54575;SDS011;40472;53.486;14.542;2022-08-01T04:17:48;2.30;;;1.30;;
54575;SDS011;40472;53.486;14.542;2022-08-01T04:20:14;2.67;;;1.15;;
54575;SDS011;40472;53.486;14.542;2022-08-01T04:22:40;1.77;;;1.17;;
54575;SDS011;40472;53.486;14.542;2022-08-01T04:25:08;4.43;;;1.67;;
54575;SDS011;40472;53.486;14.542;2022-08-01T04:27:38;6.78;;;1.48;;
54575;SDS011;40472;53.486;14.542;2022-08-01T04:30:07;7.25;;;1.40;;
54575;SDS011;40472;53.486;14.542;2022-08-01T04:32:35;3.72;;;1.52;;
54575;SDS011;40472;53.486;14.542;2022-08-01T04:35:05;4.22;;;1.40;;
54575;SDS011;40472;53.486;14.542;2022-08-01T04:37:35;4.93;;;1.55;;
54575;SDS011;40472;53.486;14.542;2022-08-01T04:40:05;2.85;;;1.35;;
54575;SDS011;40472;53.486;14.542;2022-08-01T04:42:32;8.85;;;1.45;;
54575;SDS011;40472;53.486;14.542;2022-08-01T04:44:58;6.32;;;1.48;;
54575;SDS011;40472;53.486;14.542;2022-08-01T04:47:27;4.43;;;1.65;;
54575;SDS011;40472;53.486;14.542;2022-08-01T04:49:55;2.75;;;1.45;;
54575;SDS011;40472;53.486;14.542;2022-08-01T04:52:22;4.63;;;1.60;;
54575;SDS011;40472;53.486;14.542;2022-08-01T04:54:47;2.83;;;1.23;;
54575;SDS011;40472;53.486;14.542;2022-08-01T04:57:13;3.47;;;1.30;;
54575;SDS011;40472;53.486;14.542;2022-08-01T04:59:42;3.25;;;1.45;;
54575;SDS011;40472;53.486;14.542;2022-08-01T05:02:13;5.50;;;1.20;;
54575;SDS011;40472;53.486;14.542;2022-08-01T05:04:41;3.55;;;1.40;;
54575;SDS011;40472;53.486;14.542;2022-08-01T05:07:08;4.10;;;1.40;;
54575;SDS011;40472;53.486;14.542;2022-08-01T05:09:34;7.10;;;1.50;;
54575;SDS011;40472;53.486;14.542;2022-08-01T05:12:04;2.40;;;1.50;;
54575;SDS011;40472;53.486;14.542;2022-08-01T05:14:31;3.67;;;1.48;;
54575;SDS011;40472;53.486;14.542;2022-08-01T05:17:01;3.08;;;1.67;;
54575;SDS011;40472;53.486;14.542;2022-08-01T05:19:35;7.72;;;1.63;;
54575;SDS011;40472;53.486;14.542;2022-08-01T05:22:02;10.63;;;1.60;;
54575;SDS011;40472;53.486;14.542;2022-08-01T05:24:33;4.07;;;1.33;;
54575;SDS011;40472;53.486;14.542;2022-08-01T05:27:00;2.67;;;1.40;;
54575;SDS011;40472;53.486;14.542;2022-08-01T05:29:26;3.67;;;1.52;;
54575;SDS011;40472;53.486;14.542;2022-08-01T05:31:52;7.50;;;1.70;;
54575;SDS011;40472;53.486;14.542;2022-08-01T05:34:19;4.70;;;2.20;;
54575;SDS011;40472;53.486;14.542;2022-08-01T05:36:45;3.38;;;2.03;;
54575;SDS011;40472;53.486;14.542;2022-08-01T05:39:11;4.50;;;1.95;;
54575;SDS011;40472;53.486;14.542;2022-08-01T05:41:38;6.45;;;2.58;;
54575;SDS011;40472;53.486;14.542;2022-08-01T05:44:04;6.00;;;2.30;;
54575;SDS011;40472;53.486;14.542;2022-08-01T05:46:31;4.53;;;2.33;;
54575;SDS011;40472;53.486;14.542;2022-08-01T05:48:57;4.47;;;2.00;;
54575;SDS011;40472;53.486;14.542;2022-08-01T05:51:23;5.57;;;2.97;;
54575;SDS011;40472;53.486;14.542;2022-08-01T05:53:49;7.35;;;2.30;;
54575;SDS011;40472;53.486;14.542;2022-08-01T05:56:15;11.13;;;2.55;;
54575;SDS011;40472;53.486;14.542;2022-08-01T05:58:41;9.73;;;2.75;;
54575;SDS011;40472;53.486;14.542;2022-08-01T06:01:06;11.45;;;2.42;;
54575;SDS011;40472;53.486;14.542;2022-08-01T06:03:32;3.60;;;2.20;;
54575;SDS011;40472;53.486;14.542;2022-08-01T06:05:58;7.20;;;2.45;;
54575;SDS011;40472;53.486;14.542;2022-08-01T06:08:25;4.70;;;1.73;;
54575;SDS011;40472;53.486;14.542;2022-08-01T06:10:51;6.50;;;2.28;;
54575;SDS011;40472;53.486;14.542;2022-08-01T06:13:17;4.28;;;1.88;;
54575;SDS011;40472;53.486;14.542;2022-08-01T06:15:44;6.05;;;1.73;;
54575;SDS011;40472;53.486;14.542;2022-08-01T06:18:11;5.78;;;2.03;;
54575;SDS011;40472;53.486;14.542;2022-08-01T06:20:37;3.35;;;2.08;;
54575;SDS011;40472;53.486;14.542;2022-08-01T06:23:02;5.68;;;2.20;;
54575;SDS011;40472;53.486;14.542;2022-08-01T06:25:28;5.45;;;2.40;;
54575;SDS011;40472;53.486;14.542;2022-08-01T06:27:54;7.80;;;2.63;;
54575;SDS011;40472;53.486;14.542;2022-08-01T06:30:20;9.80;;;2.20;;
54575;SDS011;40472;53.486;14.542;2022-08-01T06:32:46;4.57;;;2.05;;
54575;SDS011;40472;53.486;14.542;2022-08-01T06:35:12;9.27;;;2.42;;
54575;SDS011;40472;53.486;14.542;2022-08-01T06:37:39;3.08;;;1.77;;
54575;SDS011;40472;53.486;14.542;2022-08-01T06:40:05;4.97;;;1.50;;
54575;SDS011;40472;53.486;14.542;2022-08-01T06:42:35;7.40;;;1.85;;
54575;SDS011;40472;53.486;14.542;2022-08-01T06:45:08;5.18;;;1.75;;
54575;SDS011;40472;53.486;14.542;2022-08-01T06:47:35;5.40;;;1.80;;
54575;SDS011;40472;53.486;14.542;2022-08-01T06:50:02;2.92;;;1.52;;
54575;SDS011;40472;53.486;14.542;2022-08-01T06:52:29;6.45;;;1.80;;
54575;SDS011;40472;53.486;14.542;2022-08-01T06:54:55;2.72;;;1.65;;
54575;SDS011;40472;53.486;14.542;2022-08-01T06:57:20;5.57;;;1.70;;
54575;SDS011;40472;53.486;14.542;2022-08-01T06:59:46;2.40;;;1.65;;
54575;SDS011;40472;53.486;14.542;2022-08-01T07:02:12;4.20;;;1.60;;
54575;SDS011;40472;53.486;14.542;2022-08-01T07:04:38;3.63;;;1.80;;
54575;SDS011;40472;53.486;14.542;2022-08-01T07:07:04;6.63;;;1.73;;
54575;SDS011;40472;53.486;14.542;2022-08-01T07:09:30;7.20;;;2.22;;
54575;SDS011;40472;53.486;14.542;2022-08-01T07:11:56;7.45;;;1.90;;
54575;SDS011;40472;53.486;14.542;2022-08-01T07:14:22;4.13;;;1.45;;
54575;SDS011;40472;53.486;14.542;2022-08-01T07:16:48;4.18;;;1.70;;
54575;SDS011;40472;53.486;14.542;2022-08-01T07:19:14;3.33;;;1.80;;
54575;SDS011;40472;53.486;14.542;2022-08-01T07:21:40;9.88;;;1.77;;
54575;SDS011;40472;53.486;14.542;2022-08-01T07:24:06;2.45;;;2.00;;
54575;SDS011;40472;53.486;14.542;2022-08-01T07:26:34;4.78;;;2.05;;
54575;SDS011;40472;53.486;14.542;2022-08-01T07:29:00;3.05;;;1.88;;
54575;SDS011;40472;53.486;14.542;2022-08-01T07:31:26;9.65;;;2.22;;
54575;SDS011;40472;53.486;14.542;2022-08-01T07:33:51;2.33;;;2.00;;
54575;SDS011;40472;53.486;14.542;2022-08-01T07:36:17;8.02;;;2.17;;
54575;SDS011;40472;53.486;14.542;2022-08-01T07:38:44;3.95;;;2.03;;
54575;SDS011;40472;53.486;14.542;2022-08-01T07:41:11;5.75;;;2.72;;
54575;SDS011;40472;53.486;14.542;2022-08-01T07:43:37;9.23;;;2.53;;
54575;SDS011;40472;53.486;14.542;2022-08-01T07:49:21;9.10;;;4.45;;
54575;SDS011;40472;53.486;14.542;2022-08-01T07:51:47;13.63;;;4.47;;
54575;SDS011;40472;53.486;14.542;2022-08-01T07:54:13;18.40;;;9.30;;
54575;SDS011;40472;53.486;14.542;2022-08-01T07:56:39;22.52;;;9.48;;
54575;SDS011;40472;53.486;14.542;2022-08-01T07:59:05;11.23;;;6.85;;
54575;SDS011;40472;53.486;14.542;2022-08-01T08:01:30;21.63;;;7.05;;
54575;SDS011;40472;53.486;14.542;2022-08-01T08:03:56;15.10;;;6.78;;
54575;SDS011;40472;53.486;14.542;2022-08-01T08:06:22;14.07;;;4.95;;
54575;SDS011;40472;53.486;14.542;2022-08-01T08:08:48;12.32;;;4.85;;
54575;SDS011;40472;53.486;14.542;2022-08-01T08:11:14;13.88;;;5.78;;
54575;SDS011;40472;53.486;14.542;2022-08-01T08:13:41;10.15;;;5.60;;
54575;SDS011;40472;53.486;14.542;2022-08-01T08:16:07;13.43;;;5.35;;
54575;SDS011;40472;53.486;14.542;2022-08-01T08:18:32;7.15;;;4.60;;
54575;SDS011;40472;53.486;14.542;2022-08-01T08:20:58;10.75;;;4.30;;
54575;SDS011;40472;53.486;14.542;2022-08-01T08:23:24;8.73;;;4.43;;
54575;SDS011;40472;53.486;14.542;2022-08-01T08:26:09;8.13;;;4.47;;
54575;SDS011;40472;53.486;14.542;2022-08-01T08:28:36;8.82;;;4.63;;
54575;SDS011;40472;53.486;14.542;2022-08-01T08:31:01;9.68;;;4.40;;
54575;SDS011;40472;53.486;14.542;2022-08-01T08:33:27;10.52;;;5.00;;
54575;SDS011;40472;53.486;14.542;2022-08-01T08:35:53;5.70;;;3.78;;
54575;SDS011;40472;53.486;14.542;2022-08-01T08:38:19;8.88;;;3.33;;
54575;SDS011;40472;53.486;14.542;2022-08-01T08:40:45;4.72;;;3.45;;
54575;SDS011;40472;53.486;14.542;2022-08-01T08:43:11;7.85;;;3.42;;
54575;SDS011;40472;53.486;14.542;2022-08-01T08:45:38;5.43;;;2.67;;
54575;SDS011;40472;53.486;14.542;2022-08-01T08:48:05;3.22;;;2.20;;
54575;SDS011;40472;53.486;14.542;2022-08-01T08:50:31;5.65;;;2.72;;
54575;SDS011;40472;53.486;14.542;2022-08-01T08:52:57;6.30;;;3.33;;
54575;SDS011;40472;53.486;14.542;2022-08-01T08:55:26;8.98;;;3.95;;
54575;SDS011;40472;53.486;14.542;2022-08-01T08:57:53;5.88;;;2.42;;
54575;SDS011;40472;53.486;14.542;2022-08-01T09:00:19;6.45;;;2.80;;
54575;SDS011;40472;53.486;14.542;2022-08-01T09:02:46;7.20;;;2.38;;
54575;SDS011;40472;53.486;14.542;2022-08-01T09:05:14;6.13;;;2.90;;
54575;SDS011;40472;53.486;14.542;2022-08-01T09:07:40;5.15;;;2.58;;
54575;SDS011;40472;53.486;14.542;2022-08-01T09:10:05;3.75;;;2.38;;
54575;SDS011;40472;53.486;14.542;2022-08-01T09:12:32;8.63;;;2.63;;
54575;SDS011;40472;53.486;14.542;2022-08-01T09:14:58;4.13;;;2.72;;
54575;SDS011;40472;53.486;14.542;2022-08-01T09:17:24;4.15;;;2.40;;
54575;SDS011;40472;53.486;14.542;2022-08-01T09:19:53;5.43;;;2.78;;
54575;SDS011;40472;53.486;14.542;2022-08-01T09:22:22;6.32;;;3.13;;
54575;SDS011;40472;53.486;14.542;2022-08-01T09:25:08;6.63;;;3.38;;
54575;SDS011;40472;53.486;14.542;2022-08-01T09:27:37;8.13;;;4.47;;
54575;SDS011;40472;53.486;14.542;2022-08-01T09:30:08;8.02;;;4.40;;
54575;SDS011;40472;53.486;14.542;2022-08-01T09:32:35;10.88;;;6.78;;
54575;SDS011;40472;53.486;14.542;2022-08-01T09:37:59;16.30;;;7.55;;
54575;SDS011;40472;53.486;14.542;2022-08-01T09:40:54;14.80;;;9.27;;
54575;SDS011;40472;53.486;14.542;2022-08-01T09:43:28;17.45;;;9.88;;
54575;SDS011;40472;53.486;14.542;2022-08-01T09:45:55;18.33;;;10.30;;
54575;SDS011;40472;53.486;14.542;2022-08-01T09:48:22;20.50;;;10.40;;
54575;SDS011;40472;53.486;14.542;2022-08-01T09:50:51;14.07;;;7.40;;
54575;SDS011;40472;53.486;14.542;2022-08-01T09:53:18;12.23;;;7.07;;
54575;SDS011;40472;53.486;14.542;2022-08-01T09:55:44;15.70;;;10.10;;
54575;SDS011;40472;53.486;14.542;2022-08-01T09:58:11;14.48;;;7.85;;
54575;SDS011;40472;53.486;14.542;2022-08-01T10:00:38;17.80;;;8.43;;
54575;SDS011;40472;53.486;14.542;2022-08-01T10:03:23;13.60;;;7.32;;
54575;SDS011;40472;53.486;14.542;2022-08-01T10:05:50;8.18;;;5.75;;
54575;SDS011;40472;53.486;14.542;2022-08-01T10:08:18;13.18;;;6.65;;
54575;SDS011;40472;53.486;14.542;2022-08-01T10:13:34;12.15;;;5.55;;
54575;SDS011;40472;53.486;14.542;2022-08-01T10:16:01;8.35;;;4.55;;
54575;SDS011;40472;53.486;14.542;2022-08-01T10:18:31;6.78;;;4.05;;
54575;SDS011;40472;53.486;14.542;2022-08-01T10:21:03;6.93;;;3.55;;
54575;SDS011;40472;53.486;14.542;2022-08-01T10:23:33;5.43;;;3.45;;
54575;SDS011;40472;53.486;14.542;2022-08-01T10:26:00;5.28;;;3.47;;
54575;SDS011;40472;53.486;14.542;2022-08-01T10:28:29;10.02;;;3.78;;
54575;SDS011;40472;53.486;14.542;2022-08-01T10:30:59;6.15;;;4.00;;
54575;SDS011;40472;53.486;14.542;2022-08-01T10:33:29;4.93;;;3.47;;
54575;SDS011;40472;53.486;14.542;2022-08-01T10:35:56;5.57;;;3.10;;
54575;SDS011;40472;53.486;14.542;2022-08-01T10:38:23;5.35;;;3.15;;
54575;SDS011;40472;53.486;14.542;2022-08-01T10:40:49;7.78;;;3.00;;
54575;SDS011;40472;53.486;14.542;2022-08-01T10:43:16;3.60;;;2.78;;
54575;SDS011;40472;53.486;14.542;2022-08-01T10:45:42;3.67;;;2.60;;
54575;SDS011;40472;53.486;14.542;2022-08-01T10:50:46;5.95;;;2.75;;
54575;SDS011;40472;53.486;14.542;2022-08-01T10:58:26;4.68;;;2.90;;
54575;SDS011;40472;53.486;14.542;2022-08-01T11:03:58;4.38;;;2.95;;
54575;SDS011;40472;53.486;14.542;2022-08-01T11:08:58;6.95;;;2.35;;
54575;SDS011;40472;53.486;14.542;2022-08-01T11:11:25;4.55;;;2.70;;
54575;SDS011;40472;53.486;14.542;2022-08-01T11:16:26;6.50;;;2.83;;
54575;SDS011;40472;53.486;14.542;2022-08-01T11:18:53;3.83;;;2.33;;
54575;SDS011;40472;53.486;14.542;2022-08-01T11:21:19;4.05;;;2.53;;
54575;SDS011;40472;53.486;14.542;2022-08-01T11:23:49;5.80;;;2.50;;
54575;SDS011;40472;53.486;14.542;2022-08-01T11:26:18;5.57;;;2.70;;
54575;SDS011;40472;53.486;14.542;2022-08-01T11:28:46;4.10;;;2.38;;
54575;SDS011;40472;53.486;14.542;2022-08-01T11:31:41;3.10;;;2.20;;
54575;SDS011;40472;53.486;14.542;2022-08-01T11:34:07;3.63;;;2.22;;
54575;SDS011;40472;53.486;14.542;2022-08-01T11:36:33;7.28;;;2.35;;
54575;SDS011;40472;53.486;14.542;2022-08-01T11:41:32;5.70;;;3.20;;
54575;SDS011;40472;53.486;14.542;2022-08-01T11:44:01;3.92;;;2.58;;
54575;SDS011;40472;53.486;14.542;2022-08-01T11:46:47;4.82;;;2.90;;
54575;SDS011;40472;53.486;14.542;2022-08-01T11:52:06;8.52;;;4.00;;
54575;SDS011;40472;53.486;14.542;2022-08-01T11:54:37;10.30;;;4.68;;
54575;SDS011;40472;53.486;14.542;2022-08-01T11:57:08;5.78;;;3.78;;
54575;SDS011;40472;53.486;14.542;2022-08-01T11:59:49;5.47;;;2.10;;
54575;SDS011;40472;53.486;14.542;2022-08-01T12:02:30;3.97;;;2.42;;
54575;SDS011;40472;53.486;14.542;2022-08-01T12:07:26;6.30;;;2.17;;
54575;SDS011;40472;53.486;14.542;2022-08-01T12:12:46;3.92;;;2.05;;
54575;SDS011;40472;53.486;14.542;2022-08-01T12:15:13;3.28;;;2.03;;
54575;SDS011;40472;53.486;14.542;2022-08-01T12:17:41;3.65;;;2.38;;
54575;SDS011;40472;53.486;14.542;2022-08-01T12:20:11;3.63;;;2.50;;
54575;SDS011;40472;53.486;14.542;2022-08-01T12:22:39;2.92;;;2.30;;
54575;SDS011;40472;53.486;14.542;2022-08-01T12:27:35;5.47;;;2.30;;
54575;SDS011;40472;53.486;14.542;2022-08-01T12:30:04;6.22;;;2.50;;
54575;SDS011;40472;53.486;14.542;2022-08-01T12:32:34;3.67;;;2.42;;
54575;SDS011;40472;53.486;14.542;2022-08-01T12:35:05;3.83;;;2.78;;
54575;SDS011;40472;53.486;14.542;2022-08-01T12:37:35;3.80;;;2.80;;
54575;SDS011;40472;53.486;14.542;2022-08-01T12:40:10;4.32;;;2.70;;
54575;SDS011;40472;53.486;14.542;2022-08-01T12:42:40;4.65;;;2.63;;
54575;SDS011;40472;53.486;14.542;2022-08-01T12:45:07;4.55;;;2.40;;
54575;SDS011;40472;53.486;14.542;2022-08-01T12:47:35;4.35;;;2.22;;
54575;SDS011;40472;53.486;14.542;2022-08-01T12:50:05;4.32;;;2.83;;
54575;SDS011;40472;53.486;14.542;2022-08-01T12:52:36;4.10;;;2.30;;
54575;SDS011;40472;53.486;14.542;2022-08-01T12:57:34;3.25;;;2.28;;
54575;SDS011;40472;53.486;14.542;2022-08-01T13:00:05;7.43;;;2.60;;
54575;SDS011;40472;53.486;14.542;2022-08-01T13:02:42;6.15;;;2.78;;
54575;SDS011;40472;53.486;14.542;2022-08-01T13:05:09;5.35;;;3.20;;
54575;SDS011;40472;53.486;14.542;2022-08-01T13:10:12;4.00;;;2.55;;
54575;SDS011;40472;53.486;14.542;2022-08-01T13:12:40;2.65;;;2.40;;
54575;SDS011;40472;53.486;14.542;2022-08-01T13:15:18;5.85;;;2.20;;
54575;SDS011;40472;53.486;14.542;2022-08-01T13:18:01;2.53;;;2.20;;
54575;SDS011;40472;53.486;14.542;2022-08-01T13:20:50;4.43;;;2.65;;
54575;SDS011;40472;53.486;14.542;2022-08-01T13:23:32;3.15;;;2.67;;
54575;SDS011;40472;53.486;14.542;2022-08-01T13:25:58;4.25;;;2.45;;
54575;SDS011;40472;53.486;14.542;2022-08-01T13:28:24;4.47;;;2.50;;
54575;SDS011;40472;53.486;14.542;2022-08-01T13:31:02;5.65;;;2.45;;
54575;SDS011;40472;53.486;14.542;2022-08-01T13:33:43;3.78;;;2.30;;
54575;SDS011;40472;53.486;14.542;2022-08-01T13:36:10;3.88;;;2.70;;
54575;SDS011;40472;53.486;14.542;2022-08-01T13:38:37;3.33;;;2.30;;
54575;SDS011;40472;53.486;14.542;2022-08-01T13:41:22;3.72;;;2.70;;
54575;SDS011;40472;53.486;14.542;2022-08-01T13:43:48;3.25;;;2.35;;
54575;SDS011;40472;53.486;14.542;2022-08-01T13:46:15;6.88;;;2.40;;
54575;SDS011;40472;53.486;14.542;2022-08-01T13:48:41;3.60;;;2.30;;
54575;SDS011;40472;53.486;14.542;2022-08-01T13:51:07;4.18;;;2.90;;
54575;SDS011;40472;53.486;14.542;2022-08-01T13:53:33;3.83;;;2.50;;
54575;SDS011;40472;53.486;14.542;2022-08-01T13:55:59;3.65;;;2.75;;
54575;SDS011;40472;53.486;14.542;2022-08-01T13:58:25;5.07;;;2.60;;
54575;SDS011;40472;53.486;14.542;2022-08-01T14:00:53;4.30;;;2.10;;
54575;SDS011;40472;53.486;14.542;2022-08-01T14:03:20;4.63;;;2.25;;
54575;SDS011;40472;53.486;14.542;2022-08-01T14:05:47;3.05;;;1.80;;
54575;SDS011;40472;53.486;14.542;2022-08-01T14:08:13;4.45;;;2.33;;
54575;SDS011;40472;53.486;14.542;2022-08-01T14:10:40;4.95;;;2.67;;
54575;SDS011;40472;53.486;14.542;2022-08-01T14:13:07;5.18;;;2.70;;
54575;SDS011;40472;53.486;14.542;2022-08-01T14:15:32;3.53;;;2.33;;
54575;SDS011;40472;53.486;14.542;2022-08-01T14:17:58;3.42;;;2.33;;
54575;SDS011;40472;53.486;14.542;2022-08-01T14:20:24;4.22;;;2.50;;
54575;SDS011;40472;53.486;14.542;2022-08-01T14:22:50;5.90;;;2.95;;
54575;SDS011;40472;53.486;14.542;2022-08-01T14:25:16;4.85;;;2.88;;
54575;SDS011;40472;53.486;14.542;2022-08-01T14:27:43;4.75;;;3.20;;
54575;SDS011;40472;53.486;14.542;2022-08-01T14:30:10;5.18;;;3.00;;
54575;SDS011;40472;53.486;14.542;2022-08-01T14:32:37;5.05;;;2.95;;
54575;SDS011;40472;53.486;14.542;2022-08-01T14:35:04;4.35;;;3.08;;
54575;SDS011;40472;53.486;14.542;2022-08-01T14:37:31;4.18;;;2.80;;
54575;SDS011;40472;53.486;14.542;2022-08-01T14:39:58;3.97;;;2.78;;
54575;SDS011;40472;53.486;14.542;2022-08-01T14:42:29;4.88;;;3.13;;
54575;SDS011;40472;53.486;14.542;2022-08-01T14:44:55;4.88;;;3.05;;
54575;SDS011;40472;53.486;14.542;2022-08-01T14:47:21;4.65;;;3.33;;
54575;SDS011;40472;53.486;14.542;2022-08-01T14:49:47;6.05;;;3.60;;
54575;SDS011;40472;53.486;14.542;2022-08-01T14:52:13;6.05;;;3.35;;
54575;SDS011;40472;53.486;14.542;2022-08-01T14:54:39;5.70;;;3.85;;
54575;SDS011;40472;53.486;14.542;2022-08-01T14:57:05;5.43;;;3.60;;
54575;SDS011;40472;53.486;14.542;2022-08-01T14:59:31;6.75;;;3.67;;
54575;SDS011;40472;53.486;14.542;2022-08-01T15:01:57;5.35;;;3.90;;
54575;SDS011;40472;53.486;14.542;2022-08-01T15:04:22;8.13;;;4.47;;
54575;SDS011;40472;53.486;14.542;2022-08-01T15:06:48;5.68;;;4.60;;
54575;SDS011;40472;53.486;14.542;2022-08-01T15:09:14;5.38;;;4.07;;
54575;SDS011;40472;53.486;14.542;2022-08-01T15:11:40;6.85;;;4.82;;
54575;SDS011;40472;53.486;14.542;2022-08-01T15:14:06;5.55;;;4.65;;
54575;SDS011;40472;53.486;14.542;2022-08-01T15:16:50;6.07;;;3.95;;
54575;SDS011;40472;53.486;14.542;2022-08-01T15:19:16;5.38;;;3.95;;
54575;SDS011;40472;53.486;14.542;2022-08-01T15:21:41;6.10;;;4.05;;
54575;SDS011;40472;53.486;14.542;2022-08-01T15:24:08;6.50;;;4.40;;
54575;SDS011;40472;53.486;14.542;2022-08-01T15:26:34;5.63;;;4.07;;
54575;SDS011;40472;53.486;14.542;2022-08-01T15:29:00;6.20;;;3.90;;